Time;durP1;ratioP1;P1;durP2;ratioP2;P2;SDS_P1;SDS_P2;PMS_P1;PMS_P2;Temp;Humidity;BMP_temperature;BMP_pressure;BME280_temperature;BME280_humidity;BME280_pressure;Samples;Min_cycle;Max_cycle;Signal;HPM_P1;HPM_P2
2022/01/17 00:01:29;;;;;;;27.87;19.23;;;5.50;99.90;;;;;;5059392;28;20270;-68
2022/01/17 00:03:55;;;;;;;30.47;19.30;;;5.50;99.90;;;;;;5063182;28;20194;-70
2022/01/17 00:06:21;;;;;;;31.83;19.77;;;5.50;99.90;;;;;;5061779;28;20665;-69
2022/01/17 00:08:48;;;;;;;28.17;18.77;;;5.60;99.90;;;;;;5055676;28;20914;-69
2022/01/17 00:11:14;;;;;;;24.20;17.13;;;5.60;99.90;;;;;;5059510;28;20680;-68
2022/01/17 00:13:41;;;;;;;25.30;18.17;;;5.60;99.90;;;;;;5062535;28;20398;-67
2022/01/17 00:21:05;;;;;;;20.80;14.53;;;5.70;99.90;;;;;;5063436;28;20218;-68
2022/01/17 00:23:31;;;;;;;19.27;13.53;;;5.70;99.90;;;;;;5058057;28;20326;-68
2022/01/17 00:25:56;;;;;;;22.93;14.70;;;5.80;99.90;;;;;;5056815;28;20210;-70
2022/01/17 00:28:22;;;;;;;21.30;13.73;;;5.80;99.90;;;;;;5061731;28;20209;-71
2022/01/17 00:30:48;;;;;;;22.70;13.67;;;5.80;99.90;;;;;;5051749;28;20190;-72
2022/01/17 00:33:13;;;;;;;18.70;13.50;;;5.80;99.90;;;;;;5064327;28;20500;-68
2022/01/17 00:35:39;;;;;;;20.40;13.10;;;5.80;99.90;;;;;;5059030;28;20219;-70
2022/01/17 00:38:05;;;;;;;21.33;13.00;;;5.90;99.90;;;;;;5055624;28;20195;-69
2022/01/17 00:40:30;;;;;;;18.03;11.87;;;5.90;99.90;;;;;;5054618;28;20229;-69
2022/01/17 00:42:56;;;;;;;19.10;13.43;;;5.90;99.90;;;;;;5060412;28;20281;-70
2022/01/17 00:45:27;;;;;;;16.57;11.73;;;5.90;99.90;;;;;;5056835;28;20282;-70
2022/01/17 00:47:55;;;;;;;16.77;12.00;;;5.90;99.90;;;;;;5056430;28;20683;-68
2022/01/17 00:50:22;;;;;;;17.90;10.90;;;6.00;99.90;;;;;;5058472;28;20324;-70
2022/01/17 00:52:51;;;;;;;18.53;12.07;;;6.00;99.90;;;;;;5057078;28;20198;-71
2022/01/17 00:55:19;;;;;;;17.93;12.03;;;6.00;99.90;;;;;;5061383;28;20217;-70
2022/01/17 00:57:45;;;;;;;21.23;11.17;;;6.00;99.90;;;;;;5059985;28;20236;-70
2022/01/17 01:00:11;;;;;;;14.90;11.47;;;6.00;99.90;;;;;;5059702;28;20226;-69
2022/01/17 01:02:37;;;;;;;20.90;11.47;;;6.00;99.90;;;;;;5052997;28;20309;-69
2022/01/17 01:05:05;;;;;;;19.47;10.80;;;6.00;99.90;;;;;;5070802;28;20217;-68
2022/01/17 01:07:31;;;;;;;19.13;10.80;;;6.00;99.90;;;;;;5057225;28;20269;-68
2022/01/17 01:10:10;;;;;;;17.53;12.27;;;6.10;99.90;;;;;;5057598;28;20680;-69
2022/01/17 01:12:39;;;;;;;14.33;9.80;;;6.10;99.90;;;;;;5055285;28;20225;-68
2022/01/17 01:15:18;;;;;;;14.70;10.17;;;6.10;99.90;;;;;;5057169;28;20760;-68
2022/01/17 01:18:13;;;;;;;16.57;11.40;;;6.20;99.90;;;;;;5063064;28;20744;-68
2022/01/17 01:21:00;;;;;;;21.00;12.93;;;6.20;99.90;;;;;;5058204;28;20668;-68
2022/01/17 01:28:47;;;;;;;13.10;9.33;;;6.30;99.90;;;;;;5051818;28;20205;-69
2022/01/17 01:31:17;;;;;;;14.30;8.87;;;6.30;99.90;;;;;;5061527;28;20182;-69
2022/01/17 01:33:50;;;;;;;17.73;8.63;;;6.30;99.90;;;;;;5057029;28;20206;-70
2022/01/17 01:36:22;;;;;;;13.70;7.90;;;6.30;99.90;;;;;;5064409;28;20221;-69
2022/01/17 01:38:48;;;;;;;12.43;7.40;;;6.30;99.90;;;;;;5061476;28;20201;-71
2022/01/17 01:41:14;;;;;;;14.63;7.93;;;6.30;99.90;;;;;;5057756;28;20566;-69
2022/01/17 01:43:40;;;;;;;13.33;7.30;;;6.30;99.90;;;;;;5067360;28;20197;-69
2022/01/17 01:46:06;;;;;;;12.40;6.53;;;6.30;99.90;;;;;;5055868;28;20256;-70
2022/01/17 01:48:34;;;;;;;8.30;4.87;;;6.30;99.90;;;;;;5061674;28;20682;-69
2022/01/17 01:51:00;;;;;;;12.73;5.60;;;6.40;99.90;;;;;;5057874;28;20643;-70
2022/01/17 01:53:26;;;;;;;8.73;4.43;;;6.40;99.90;;;;;;5062486;28;20664;-71
2022/01/17 01:55:55;;;;;;;6.70;3.83;;;6.40;99.90;;;;;;5051217;28;20203;-74
2022/01/17 01:58:22;;;;;;;7.10;3.40;;;6.40;99.90;;;;;;5055294;28;20260;-76
2022/01/17 02:00:48;;;;;;;7.73;2.47;;;6.40;99.90;;;;;;5055543;28;20269;-69
2022/01/17 02:03:14;;;;;;;5.13;2.23;;;6.40;99.90;;;;;;5053146;28;20654;-68
2022/01/17 02:05:40;;;;;;;2.53;1.50;;;6.30;99.90;;;;;;5048608;28;20187;-69
2022/01/17 02:08:09;;;;;;;7.43;2.37;;;6.20;99.90;;;;;;5052556;28;20194;-68
2022/01/17 02:10:37;;;;;;;6.63;2.63;;;6.20;99.90;;;;;;5060163;28;20252;-67
2022/01/17 02:13:03;;;;;;;5.50;1.80;;;6.00;99.90;;;;;;5052780;28;20572;-68
2022/01/17 02:15:28;;;;;;;7.20;1.70;;;5.80;99.90;;;;;;5052582;28;20213;-70
2022/01/17 02:17:55;;;;;;;2.37;1.70;;;5.60;99.90;;;;;;5055818;28;20279;-60
2022/01/17 02:20:39;;;;;;;3.97;1.20;;;5.60;99.90;;;;;;5063083;28;20232;-61
2022/01/17 02:23:07;;;;;;;3.63;1.40;;;5.50;99.90;;;;;;5051971;28;20214;-61
2022/01/17 02:25:33;;;;;;;5.67;1.40;;;5.50;99.90;;;;;;5061358;28;20934;-63
2022/01/17 02:27:58;;;;;;;5.33;1.97;;;5.60;99.90;;;;;;5050182;28;20218;-64
2022/01/17 02:30:26;;;;;;;4.70;2.20;;;5.60;99.90;;;;;;5067210;28;20282;-65
2022/01/17 02:32:51;;;;;;;6.63;1.57;;;5.70;99.90;;;;;;5055728;28;20288;-64
2022/01/17 02:35:19;;;;;;;6.90;2.00;;;5.80;99.90;;;;;;5066523;28;20287;-64
2022/01/17 02:37:45;;;;;;;4.80;1.40;;;5.90;99.90;;;;;;5055557;28;20285;-63
2022/01/17 02:40:14;;;;;;;3.63;1.67;;;5.90;99.90;;;;;;5067241;28;20269;-61
2022/01/17 02:42:39;;;;;;;6.63;1.63;;;5.90;99.90;;;;;;5057334;28;20214;-62
2022/01/17 02:45:18;;;;;;;4.23;1.77;;;5.90;99.90;;;;;;5066026;28;20213;-61
2022/01/17 02:47:44;;;;;;;4.13;1.60;;;5.90;99.90;;;;;;5056514;28;20513;-62
2022/01/17 02:50:10;;;;;;;4.37;1.53;;;6.00;99.90;;;;;;5067465;28;20513;-62
2022/01/17 02:52:35;;;;;;;12.80;2.83;;;6.00;99.90;;;;;;5065902;28;20280;-64
2022/01/17 02:55:01;;;;;;;5.57;1.77;;;6.00;99.90;;;;;;5067229;28;20326;-63
2022/01/17 02:57:28;;;;;;;6.67;2.07;;;6.00;99.90;;;;;;5058458;28;20198;-62
2022/01/17 02:59:53;;;;;;;4.23;1.30;;;6.00;99.90;;;;;;5060068;28;20182;-61
2022/01/17 03:02:19;;;;;;;4.67;1.50;;;6.00;99.90;;;;;;5065481;28;20537;-62
2022/01/17 03:04:44;;;;;;;7.07;1.50;;;6.00;99.90;;;;;;5056167;28;20182;-63
2022/01/17 03:07:10;;;;;;;10.17;1.70;;;6.10;99.90;;;;;;5060757;28;20565;-64
2022/01/17 03:09:44;;;;;;;4.27;2.00;;;6.10;99.90;;;;;;5058579;28;20580;-65
2022/01/17 03:12:10;;;;;;;8.87;1.80;;;6.10;99.90;;;;;;5051677;28;20280;-64
2022/01/17 03:14:35;;;;;;;2.93;1.30;;;6.10;99.90;;;;;;5057877;28;20836;-63
2022/01/17 03:17:01;;;;;;;7.27;1.70;;;6.10;99.90;;;;;;5064584;28;20408;-64
2022/01/17 03:19:27;;;;;;;9.37;1.47;;;6.10;99.90;;;;;;5055318;28;20306;-64
2022/01/17 03:21:52;;;;;;;7.47;2.10;;;6.10;99.90;;;;;;5063043;28;20286;-65
2022/01/17 03:24:18;;;;;;;9.10;2.47;;;6.10;99.90;;;;;;5059609;28;20268;-64
2022/01/17 03:26:43;;;;;;;4.60;2.13;;;6.10;99.90;;;;;;5063194;28;20198;-64
2022/01/17 03:29:08;;;;;;;8.67;2.37;;;6.10;99.90;;;;;;5049249;28;20191;-64
2022/01/17 03:31:34;;;;;;;9.33;2.17;;;6.10;99.90;;;;;;5068599;28;20288;-63
2022/01/17 03:33:59;;;;;;;9.60;2.20;;;6.10;99.90;;;;;;5051867;28;20214;-63
2022/01/17 03:36:25;;;;;;;10.93;3.07;;;6.00;99.90;;;;;;5062186;28;20218;-64
2022/01/17 03:38:51;;;;;;;6.93;2.63;;;6.00;99.90;;;;;;5055795;28;20215;-62
2022/01/17 03:41:16;;;;;;;7.60;1.87;;;6.00;99.90;;;;;;5065881;28;20286;-62
2022/01/17 03:43:42;;;;;;;4.23;1.40;;;6.00;99.90;;;;;;5049604;28;20203;-63
2022/01/17 03:46:07;;;;;;;8.43;2.07;;;6.10;99.90;;;;;;5067061;28;20194;-63
2022/01/17 03:48:33;;;;;;;4.87;1.93;;;6.00;99.90;;;;;;5052151;28;20284;-62
2022/01/17 03:51:00;;;;;;;5.00;1.50;;;6.00;99.90;;;;;;5066209;28;20198;-62
2022/01/17 03:53:27;;;;;;;7.53;2.27;;;6.00;99.90;;;;;;5050262;28;20681;-62
2022/01/17 03:55:53;;;;;;;6.10;1.63;;;6.00;99.90;;;;;;5066314;28;20301;-63
2022/01/17 03:58:21;;;;;;;6.50;1.57;;;6.00;99.90;;;;;;5050245;28;20249;-63
2022/01/17 04:00:48;;;;;;;7.10;2.37;;;6.00;99.90;;;;;;5063150;28;20191;-63
2022/01/17 04:03:14;;;;;;;7.60;2.40;;;6.00;99.90;;;;;;5052964;28;20203;-63
2022/01/17 04:05:39;;;;;;;13.70;2.70;;;6.10;99.90;;;;;;5066271;28;20297;-64
2022/01/17 04:08:06;;;;;;;9.47;1.93;;;6.10;99.90;;;;;;5051945;28;20289;-63
2022/01/17 04:10:32;;;;;;;5.60;2.13;;;6.10;99.90;;;;;;5056649;28;20203;-62
2022/01/17 04:13:02;;;;;;;8.80;2.70;;;6.20;99.90;;;;;;5053326;28;20206;-63
2022/01/17 04:15:28;;;;;;;16.10;2.60;;;6.10;99.90;;;;;;5065639;28;20218;-64
2022/01/17 04:17:54;;;;;;;4.23;1.87;;;6.20;99.90;;;;;;5063944;28;20198;-63
2022/01/17 04:20:26;;;;;;;7.60;2.43;;;6.20;99.90;;;;;;5065696;28;20861;-63
2022/01/17 04:22:54;;;;;;;15.40;2.87;;;6.20;99.90;;;;;;5060179;28;20275;-64
2022/01/17 04:25:21;;;;;;;4.83;1.83;;;6.10;99.90;;;;;;5065450;28;20186;-62
2022/01/17 04:27:48;;;;;;;10.90;2.57;;;6.10;99.90;;;;;;5054224;28;20559;-62
2022/01/17 04:30:14;;;;;;;4.53;1.67;;;6.00;99.90;;;;;;5058945;28;20202;-62
2022/01/17 04:32:41;;;;;;;12.93;3.03;;;6.00;99.90;;;;;;5063551;28;20205;-62
2022/01/17 04:35:08;;;;;;;7.70;2.17;;;6.00;99.90;;;;;;5065820;28;20287;-63
2022/01/17 04:37:34;;;;;;;10.60;2.70;;;6.00;99.90;;;;;;5055704;28;20191;-62
2022/01/17 04:39:59;;;;;;;8.13;2.00;;;6.00;99.90;;;;;;5064422;28;20527;-62
2022/01/17 04:42:28;;;;;;;4.30;2.53;;;6.00;99.90;;;;;;5056504;28;20195;-62
2022/01/17 04:45:11;;;;;;;8.13;2.20;;;6.00;99.90;;;;;;5058433;28;20194;-63
2022/01/17 04:47:40;;;;;;;7.63;2.80;;;6.00;99.90;;;;;;5053619;28;20198;-63
2022/01/17 04:50:08;;;;;;;7.47;2.17;;;6.00;99.90;;;;;;5065517;28;20653;-62
2022/01/17 04:52:35;;;;;;;8.93;1.40;;;6.00;99.90;;;;;;5054799;28;20194;-62
2022/01/17 04:55:06;;;;;;;10.90;2.47;;;5.90;99.90;;;;;;5059747;28;20210;-62
2022/01/17 04:57:32;;;;;;;10.10;2.33;;;6.00;99.90;;;;;;5053038;28;20638;-64
2022/01/17 04:59:57;;;;;;;7.00;2.63;;;6.00;99.90;;;;;;5064344;28;20194;-63
2022/01/17 05:02:23;;;;;;;5.73;1.93;;;6.00;99.90;;;;;;5056683;28;20203;-63
2022/01/17 05:04:49;;;;;;;10.57;2.30;;;6.00;99.90;;;;;;5058735;28;20191;-64
2022/01/17 05:07:15;;;;;;;13.03;3.33;;;5.90;99.90;;;;;;5062316;28;20277;-63
2022/01/17 05:09:42;;;;;;;13.27;2.30;;;5.90;99.90;;;;;;5050644;28;20542;-63
2022/01/17 05:12:10;;;;;;;10.63;2.63;;;5.90;99.90;;;;;;5058432;28;20218;-63
2022/01/17 05:14:35;;;;;;;8.53;1.60;;;5.90;99.90;;;;;;5055179;28;20536;-61
2022/01/17 05:17:21;;;;;;;7.27;1.67;;;5.90;99.90;;;;;;5059178;28;20724;-62
2022/01/17 05:19:49;;;;;;;11.93;2.63;;;5.90;99.90;;;;;;5056536;28;20262;-62
2022/01/17 05:22:16;;;;;;;9.17;2.07;;;5.90;99.90;;;;;;5057065;28;20722;-62
2022/01/17 05:24:42;;;;;;;8.13;2.33;;;5.90;99.90;;;;;;5063500;28;20248;-62
2022/01/17 05:27:07;;;;;;;10.40;1.93;;;6.00;99.90;;;;;;5061885;28;20766;-62
2022/01/17 05:29:33;;;;;;;3.47;1.87;;;6.00;99.90;;;;;;5049343;28;20201;-63
2022/01/17 05:31:59;;;;;;;6.77;1.70;;;6.00;99.90;;;;;;5059008;28;20195;-63
2022/01/17 05:34:24;;;;;;;9.07;2.30;;;6.00;99.90;;;;;;5044053;28;20186;-63
2022/01/17 05:36:50;;;;;;;8.83;1.93;;;6.00;99.90;;;;;;5061421;28;20304;-64
2022/01/17 05:39:15;;;;;;;8.50;2.47;;;6.00;99.90;;;;;;5056968;28;20222;-62
2022/01/17 05:41:41;;;;;;;6.70;2.10;;;6.00;99.90;;;;;;5055271;28;20206;-62
2022/01/17 05:44:07;;;;;;;9.83;2.53;;;6.00;99.90;;;;;;5064135;28;20218;-62
2022/01/17 05:46:32;;;;;;;7.47;1.90;;;6.00;99.90;;;;;;5059256;28;20285;-62
2022/01/17 05:48:58;;;;;;;6.47;1.97;;;6.00;99.90;;;;;;5048677;28;20214;-62
2022/01/17 05:51:23;;;;;;;8.43;2.17;;;6.10;99.90;;;;;;5062702;28;20210;-63
2022/01/17 05:53:49;;;;;;;7.37;2.83;;;6.00;99.90;;;;;;5057956;28;20677;-63
2022/01/17 05:56:14;;;;;;;5.37;2.37;;;6.00;99.90;;;;;;5062814;28;20229;-62
2022/01/17 05:58:40;;;;;;;5.70;2.03;;;6.00;99.90;;;;;;5055724;28;20562;-62
2022/01/17 06:01:06;;;;;;;3.77;1.87;;;6.00;99.90;;;;;;5060827;28;20355;-62
2022/01/17 06:03:32;;;;;;;12.27;2.07;;;6.10;99.90;;;;;;5059511;28;20700;-63
2022/01/17 06:05:58;;;;;;;8.30;2.43;;;6.00;99.90;;;;;;5063126;28;20190;-62
2022/01/17 06:08:23;;;;;;;4.93;2.30;;;6.00;99.90;;;;;;5046751;28;20685;-62
2022/01/17 06:10:49;;;;;;;4.70;2.13;;;6.10;99.90;;;;;;5063092;28;20194;-63
2022/01/17 06:13:14;;;;;;;5.53;2.37;;;6.10;99.90;;;;;;5050241;28;20202;-62
2022/01/17 06:15:40;;;;;;;6.07;1.90;;;6.10;99.90;;;;;;5063101;28;20259;-63
2022/01/17 06:18:05;;;;;;;2.53;1.43;;;6.10;99.90;;;;;;5050369;28;20283;-63
2022/01/17 06:20:31;;;;;;;7.37;2.10;;;6.10;99.90;;;;;;5062738;28;20186;-62
2022/01/17 06:22:56;;;;;;;4.13;1.90;;;6.00;99.90;;;;;;5012763;28;1073943;-64
2022/01/17 06:25:22;;;;;;;10.17;2.83;;;6.00;99.90;;;;;;5063403;28;20193;-64
2022/01/17 06:27:47;;;;;;;7.13;2.10;;;5.90;99.90;;;;;;5062213;28;20201;-64
2022/01/17 06:30:13;;;;;;;3.93;1.37;;;5.80;99.90;;;;;;5061493;28;20289;-64
2022/01/17 06:32:39;;;;;;;9.27;2.27;;;5.80;99.90;;;;;;5059508;28;20198;-64
2022/01/17 06:35:05;;;;;;;11.00;3.23;;;5.70;99.90;;;;;;5043832;28;20198;-64
2022/01/17 06:37:31;;;;;;;10.63;2.17;;;5.60;99.90;;;;;;5044287;28;20190;-64
2022/01/17 06:39:56;;;;;;;6.53;2.23;;;5.60;99.90;;;;;;5061045;28;20190;-63
2022/01/17 06:42:23;;;;;;;5.63;2.43;;;5.60;99.90;;;;;;5063696;28;20595;-64
2022/01/17 06:44:49;;;;;;;13.03;2.37;;;5.60;99.90;;;;;;5044325;28;20573;-64
2022/01/17 06:47:15;;;;;;;9.20;2.60;;;5.50;99.90;;;;;;5044124;28;20262;-64
2022/01/17 06:49:40;;;;;;;5.70;2.57;;;5.50;99.90;;;;;;5059092;28;20567;-64
2022/01/17 06:52:06;;;;;;;7.43;2.07;;;5.40;99.90;;;;;;5063987;28;20182;-64
2022/01/17 06:54:32;;;;;;;4.37;1.40;;;5.40;99.90;;;;;;5046390;28;20591;-64
2022/01/17 06:56:57;;;;;;;2.70;1.47;;;5.40;99.90;;;;;;5043572;28;20283;-63
2022/01/17 06:59:23;;;;;;;4.83;1.67;;;5.40;99.90;;;;;;5056628;28;20194;-63
2022/01/17 07:01:48;;;;;;;2.93;1.27;;;5.40;99.90;;;;;;5063922;28;20178;-63
2022/01/17 07:04:14;;;;;;;5.13;2.20;;;5.40;99.90;;;;;;5048604;28;20489;-63
2022/01/17 07:06:40;;;;;;;8.77;2.00;;;5.40;99.90;;;;;;5043988;28;20187;-62
2022/01/17 07:09:09;;;;;;;8.67;2.50;;;5.40;99.90;;;;;;5054090;28;20202;-61
2022/01/17 07:11:38;;;;;;;9.63;2.83;;;5.40;99.90;;;;;;5063485;28;20515;-62
2022/01/17 07:14:05;;;;;;;8.27;2.83;;;5.40;99.90;;;;;;5049999;28;20681;-62
2022/01/17 07:16:31;;;;;;;7.70;2.33;;;5.40;99.90;;;;;;5046518;28;20314;-62
2022/01/17 07:18:56;;;;;;;7.53;2.30;;;5.40;99.90;;;;;;5056311;28;20304;-62
2022/01/17 07:21:22;;;;;;;8.90;2.30;;;5.40;99.90;;;;;;5067159;28;20221;-62
2022/01/17 07:23:47;;;;;;;5.90;1.63;;;5.50;99.90;;;;;;5055725;28;20214;-62
2022/01/17 07:26:13;;;;;;;10.60;1.97;;;5.50;99.90;;;;;;5046971;28;20195;-62
2022/01/17 07:28:38;;;;;;;5.80;1.50;;;5.50;99.90;;;;;;5053814;28;20231;-62
2022/01/17 07:31:04;;;;;;;9.03;1.90;;;5.50;99.90;;;;;;5066485;28;20193;-63
2022/01/17 07:33:30;;;;;;;6.80;2.00;;;5.50;99.90;;;;;;5064768;28;20199;-62
2022/01/17 07:35:56;;;;;;;7.07;2.33;;;5.60;99.90;;;;;;5044891;28;20218;-63
2022/01/17 07:38:21;;;;;;;6.40;2.43;;;5.60;99.90;;;;;;5065397;28;20197;-63
2022/01/17 07:40:47;;;;;;;3.87;1.67;;;5.60;99.90;;;;;;5056423;28;20427;-63
2022/01/17 07:43:12;;;;;;;7.00;2.17;;;5.70;99.90;;;;;;5066936;28;20927;-63
2022/01/17 07:45:46;;;;;;;5.37;1.97;;;5.70;99.90;;;;;;5063292;28;20245;-64
2022/01/17 07:48:43;;;;;;;8.23;1.93;;;5.70;99.90;;;;;;5064500;28;20197;-64
2022/01/17 07:50:57;;;;;;;10.77;2.40;;;5.70;99.90;;;;;;5052223;28;20575;-63
2022/01/17 07:53:22;;;;;;;6.53;2.30;;;5.80;99.90;;;;;;5066108;28;20201;-62
2022/01/17 07:55:48;;;;;;;5.23;2.27;;;5.80;99.90;;;;;;5056229;28;20266;-62
2022/01/17 07:58:13;;;;;;;6.33;2.07;;;5.70;99.90;;;;;;5066389;28;20201;-62
2022/01/17 08:00:39;;;;;;;7.87;1.90;;;5.70;99.90;;;;;;5062708;28;20225;-62
2022/01/17 08:03:06;;;;;;;4.07;2.13;;;5.70;99.90;;;;;;5065319;28;20733;-62
2022/01/17 08:05:32;;;;;;;7.60;2.40;;;5.70;99.90;;;;;;5055345;28;20348;-63
2022/01/17 08:07:58;;;;;;;10.30;2.40;;;5.70;99.90;;;;;;5065542;28;20237;-63
2022/01/17 08:10:23;;;;;;;5.40;1.90;;;5.80;99.90;;;;;;5064146;28;20284;-63
2022/01/17 08:12:49;;;;;;;7.27;2.40;;;5.80;99.90;;;;;;5065652;28;20198;-62
2022/01/17 08:15:16;;;;;;;10.00;2.67;;;5.80;99.90;;;;;;5057388;28;20223;-61
2022/01/17 08:17:42;;;;;;;6.83;3.03;;;5.70;99.90;;;;;;5062650;28;20189;-62
2022/01/17 08:20:09;;;;;;;5.97;2.30;;;5.70;99.90;;;;;;5063304;28;20206;-62
2022/01/17 08:22:34;;;;;;;5.83;2.40;;;5.70;99.90;;;;;;5052261;28;20762;-62
2022/01/17 08:25:00;;;;;;;7.57;2.53;;;5.60;99.90;;;;;;5055617;28;20199;-62
2022/01/17 08:27:26;;;;;;;2.93;1.87;;;5.60;99.90;;;;;;5059988;28;20561;-61
2022/01/17 08:29:52;;;;;;;4.47;2.13;;;5.60;99.90;;;;;;5063225;28;20202;-61
2022/01/17 08:32:17;;;;;;;5.20;1.87;;;5.60;99.90;;;;;;5062714;28;20197;-61
2022/01/17 08:34:43;;;;;;;8.10;2.03;;;5.70;99.90;;;;;;5057402;28;20658;-65
2022/01/17 08:37:08;;;;;;;6.77;1.67;;;5.70;99.90;;;;;;5055806;28;20287;-61
2022/01/17 08:39:34;;;;;;;4.83;2.53;;;5.70;99.90;;;;;;5059105;28;20187;-61
2022/01/17 08:42:01;;;;;;;4.00;2.00;;;5.80;99.90;;;;;;5058928;28;20730;-62
2022/01/17 08:44:26;;;;;;;4.10;2.63;;;5.80;99.90;;;;;;5060597;28;20777;-63
2022/01/17 08:46:52;;;;;;;3.47;1.87;;;5.80;99.90;;;;;;5057573;28;20183;-62
2022/01/17 08:49:17;;;;;;;6.33;2.17;;;5.80;99.90;;;;;;5061589;28;20281;-62
2022/01/17 08:51:43;;;;;;;2.77;1.47;;;5.80;99.90;;;;;;5056556;28;20186;-63
2022/01/17 08:54:09;;;;;;;4.43;2.23;;;5.80;99.90;;;;;;5062158;28;20205;-63
2022/01/17 08:56:34;;;;;;;5.43;1.67;;;5.80;99.90;;;;;;5060045;28;20723;-62
2022/01/17 08:59:02;;;;;;;5.53;1.80;;;5.80;99.90;;;;;;5064607;28;20828;-62
2022/01/17 09:01:28;;;;;;;4.67;1.70;;;5.90;99.90;;;;;;5055014;28;20198;-62
2022/01/17 09:03:53;;;;;;;3.17;1.73;;;5.90;99.90;;;;;;5065062;28;20224;-62
2022/01/17 09:06:19;;;;;;;8.80;1.90;;;5.90;99.90;;;;;;5052117;28;20699;-63
2022/01/17 09:08:45;;;;;;;5.47;1.77;;;5.90;99.90;;;;;;5064877;28;20205;-62
2022/01/17 09:11:10;;;;;;;3.53;1.23;;;5.90;99.90;;;;;;5046091;28;20199;-61
2022/01/17 09:13:36;;;;;;;6.67;1.50;;;5.90;99.90;;;;;;5063028;28;20228;-60
2022/01/17 09:16:02;;;;;;;4.20;2.33;;;5.90;99.90;;;;;;5057371;28;20979;-60
2022/01/17 09:18:28;;;;;;;3.80;1.27;;;5.80;99.90;;;;;;5064105;28;20197;-60
2022/01/17 09:20:54;;;;;;;4.73;1.73;;;5.80;99.90;;;;;;5051757;28;20657;-59
2022/01/17 09:23:20;;;;;;;2.63;1.50;;;5.80;99.90;;;;;;5064949;28;20217;-60
2022/01/17 09:25:46;;;;;;;6.77;1.80;;;5.80;99.90;;;;;;5049284;28;20198;-59
2022/01/17 09:28:11;;;;;;;3.43;1.53;;;5.80;99.90;;;;;;5064053;28;20637;-60
2022/01/17 09:30:37;;;;;;;5.37;1.57;;;5.90;99.90;;;;;;5056421;28;20300;-59
2022/01/17 09:33:03;;;;;;;4.63;1.63;;;5.90;99.90;;;;;;5064481;28;20198;-59
2022/01/17 09:35:30;;;;;;;5.43;1.40;;;5.90;99.90;;;;;;5051139;28;20218;-59
2022/01/17 09:37:56;;;;;;;4.30;1.53;;;5.90;99.90;;;;;;5063614;28;20828;-63
2022/01/17 09:40:21;;;;;;;4.37;1.40;;;5.90;99.90;;;;;;5051209;28;20187;-64
2022/01/17 09:42:48;;;;;;;7.00;2.43;;;6.10;99.90;;;;;;5060123;28;20193;-63
2022/01/17 09:45:16;;;;;;;3.77;1.90;;;6.30;99.90;;;;;;5048752;28;20222;-63
2022/01/17 09:47:45;;;;;;;4.90;2.00;;;6.50;99.90;;;;;;5062140;28;20581;-62
2022/01/17 09:50:18;;;;;;;2.80;1.60;;;6.60;99.90;;;;;;5060457;28;20293;-63
2022/01/17 09:52:51;;;;;;;4.30;1.40;;;6.60;99.90;;;;;;5062940;28;20347;-64
2022/01/17 09:55:23;;;;;;;5.37;1.90;;;6.70;99.90;;;;;;5042403;28;20905;-71
2022/01/17 09:57:52;;;;;;;5.60;1.93;;;6.60;99.90;;;;;;5059922;28;20225;-71
2022/01/17 10:00:24;;;;;;;1.87;1.00;;;6.40;99.90;;;;;;5064207;28;20194;-71
2022/01/17 10:02:50;;;;;;;2.30;0.87;;;6.20;99.90;;;;;;5068568;28;20212;-66
2022/01/17 10:05:16;;;;;;;2.50;1.03;;;6.10;99.90;;;;;;5052149;28;20700;-68
2022/01/17 10:07:53;;;;;;;3.07;1.17;;;6.10;99.90;;;;;;5059025;28;20214;-68
2022/01/17 10:10:36;;;;;;;3.23;1.60;;;6.20;99.90;;;;;;5063918;28;20194;-68
2022/01/17 10:13:23;;;;;;;3.57;0.80;;;6.20;99.90;;;;;;5051527;28;20213;-67
2022/01/17 10:16:19;;;;;;;2.97;1.07;;;6.20;99.90;;;;;;5055934;28;20695;-63
2022/01/17 10:18:54;;;;;;;0.90;0.57;;;6.20;99.90;;;;;;5044374;28;20187;-66
2022/01/17 10:21:42;;;;;;;2.20;0.87;;;6.10;99.90;;;;;;5049044;28;20224;-65
2022/01/17 10:34:55;;;;;;;8.60;1.87;;;6.10;99.90;;;;;;5057681;28;20256;-67
2022/01/17 10:37:23;;;;;;;5.03;1.87;;;6.20;99.90;;;;;;5042252;28;20730;-66
2022/01/17 10:40:03;;;;;;;6.20;1.97;;;6.20;99.90;;;;;;5060518;28;20206;-66
2022/01/17 10:42:41;;;;;;;3.80;1.77;;;6.10;99.90;;;;;;5068019;28;20203;-65
2022/01/17 10:45:16;;;;;;;4.70;1.30;;;6.00;99.90;;;;;;5048476;28;20226;-66
2022/01/17 10:47:44;;;;;;;7.33;1.63;;;5.90;99.90;;;;;;5058882;28;20292;-66
2022/01/17 10:50:14;;;;;;;10.77;2.07;;;5.90;99.90;;;;;;5056272;28;20244;-66
2022/01/17 10:53:04;;;;;;;5.20;1.40;;;6.00;99.90;;;;;;5065727;28;20202;-66
2022/01/17 10:55:35;;;;;;;5.93;1.30;;;6.00;99.90;;;;;;5050569;28;20339;-64
2022/01/17 10:58:09;;;;;;;6.23;2.47;;;6.00;99.90;;;;;;5059613;28;20202;-65
2022/01/17 11:00:37;;;;;;;7.07;2.53;;;6.10;99.90;;;;;;5060088;28;20179;-65
2022/01/17 11:03:07;;;;;;;4.63;2.17;;;6.00;99.90;;;;;;5056316;28;20238;-65
2022/01/17 11:05:34;;;;;;;7.80;2.57;;;6.10;99.90;;;;;;5055789;28;20194;-65
2022/01/17 11:08:02;;;;;;;6.77;1.63;;;6.10;99.90;;;;;;5061349;28;20255;-66
2022/01/17 11:10:29;;;;;;;6.77;1.63;;;6.10;99.90;;;;;;5056029;28;20182;-64
2022/01/17 11:12:57;;;;;;;6.73;2.23;;;6.20;99.90;;;;;;5053311;28;20210;-65
2022/01/17 11:15:25;;;;;;;9.97;2.43;;;6.20;99.90;;;;;;5054513;28;20215;-65
2022/01/17 11:17:55;;;;;;;8.13;2.20;;;6.10;99.90;;;;;;5053032;28;20211;-64
2022/01/17 11:20:23;;;;;;;7.20;2.37;;;6.10;99.90;;;;;;5059547;28;20209;-65
2022/01/17 11:22:51;;;;;;;3.60;1.80;;;5.90;99.90;;;;;;5059462;28;20565;-65
2022/01/17 11:25:32;;;;;;;4.17;1.20;;;5.60;99.90;;;;;;5064040;28;20194;-65
2022/01/17 11:27:59;;;;;;;6.13;1.97;;;5.20;99.90;;;;;;5061171;28;20271;-65
2022/01/17 11:30:25;;;;;;;5.83;1.53;;;4.40;99.90;;;;;;5049175;28;20198;-64
2022/01/17 11:32:53;;;;;;;7.07;1.60;;;4.00;99.90;;;;;;5053448;28;20285;-65
2022/01/17 11:35:20;;;;;;;6.40;1.73;;;3.70;99.90;;;;;;5055986;28;20575;-65
2022/01/17 11:37:49;;;;;;;6.07;1.93;;;3.60;99.90;;;;;;5056601;28;20268;-65
2022/01/17 11:40:19;;;;;;;7.93;1.83;;;3.50;99.90;;;;;;5055576;28;20285;-64
2022/01/17 11:42:48;;;;;;;10.33;1.90;;;3.60;99.90;;;;;;5063792;28;20196;-65
2022/01/17 11:45:22;;;;;;;8.13;2.60;;;3.70;99.90;;;;;;5057636;28;20286;-65
2022/01/17 11:47:54;;;;;;;12.83;2.03;;;3.80;99.90;;;;;;5056948;28;20723;-67
2022/01/17 11:50:32;;;;;;;3.00;1.30;;;3.90;99.90;;;;;;5064001;28;20202;-65
2022/01/17 11:53:27;;;;;;;4.27;1.50;;;3.70;99.90;;;;;;5056255;28;20195;-65
2022/01/17 11:55:53;;;;;;;10.10;1.90;;;3.70;99.90;;;;;;5049234;28;20269;-66
2022/01/17 11:58:24;;;;;;;8.97;2.07;;;3.60;99.90;;;;;;5056764;28;20222;-65
2022/01/17 12:01:08;;;;;;;7.67;1.70;;;3.60;99.90;;;;;;5057602;28;20341;-66
2022/01/17 12:03:54;;;;;;;4.93;2.20;;;3.70;99.90;;;;;;5048886;28;20236;-65
2022/01/17 12:06:40;;;;;;;6.97;1.90;;;3.80;99.90;;;;;;5069111;28;20566;-66
2022/01/17 12:09:27;;;;;;;3.37;1.13;;;3.80;99.90;;;;;;5054966;28;20205;-67
2022/01/17 12:11:56;;;;;;;11.73;1.53;;;3.90;99.90;;;;;;5049423;28;20947;-65
2022/01/17 12:14:30;;;;;;;4.70;1.27;;;4.00;99.90;;;;;;5060742;28;20275;-65
2022/01/17 12:17:23;;;;;;;6.03;1.50;;;4.20;99.90;;;;;;5059404;28;20638;-66
2022/01/17 12:20:04;;;;;;;9.10;2.10;;;4.10;99.90;;;;;;5053158;28;20209;-66
2022/01/17 12:22:38;;;;;;;4.80;1.73;;;4.20;99.90;;;;;;5055791;28;20226;-65
2022/01/17 12:25:29;;;;;;;5.50;1.40;;;4.20;99.90;;;;;;5063438;28;20280;-65
2022/01/17 12:28:17;;;;;;;7.77;1.80;;;4.10;99.90;;;;;;5059372;28;20202;-65
2022/01/17 12:30:46;;;;;;;11.40;3.50;;;4.20;99.90;;;;;;5047687;28;20214;-66
2022/01/17 12:33:27;;;;;;;3.83;1.27;;;4.20;99.90;;;;;;5068064;28;20401;-65
2022/01/17 12:35:57;;;;;;;8.03;1.93;;;4.30;99.90;;;;;;5056899;28;20222;-65
2022/01/17 12:38:42;;;;;;;3.57;1.27;;;4.30;99.90;;;;;;5053934;28;20301;-67
2022/01/17 12:41:31;;;;;;;5.53;1.73;;;4.40;99.90;;;;;;5062755;28;20207;-68
2022/01/17 12:43:57;;;;;;;6.97;2.07;;;4.40;99.90;;;;;;5051300;28;20247;-64
2022/01/17 12:46:25;;;;;;;8.63;1.70;;;4.40;99.90;;;;;;5061012;28;20194;-63
2022/01/17 12:48:52;;;;;;;5.63;1.77;;;4.50;99.90;;;;;;5059097;28;20557;-64
2022/01/17 12:51:18;;;;;;;5.87;1.87;;;4.40;99.90;;;;;;5061007;28;20225;-67
2022/01/17 12:53:50;;;;;;;4.97;1.40;;;4.50;99.90;;;;;;5063944;28;20305;-65
2022/01/17 12:56:17;;;;;;;3.03;1.23;;;4.50;99.90;;;;;;5050350;28;20217;-65
2022/01/17 12:58:43;;;;;;;7.67;1.73;;;4.50;99.90;;;;;;5051124;28;20186;-64
2022/01/17 13:01:12;;;;;;;5.87;1.33;;;4.50;99.90;;;;;;5051098;28;20202;-64
2022/01/17 13:03:40;;;;;;;6.43;1.70;;;4.60;99.90;;;;;;5049922;28;20189;-64
2022/01/17 13:06:13;;;;;;;9.00;1.43;;;4.60;99.90;;;;;;5060386;28;20232;-64
2022/01/17 13:08:42;;;;;;;8.50;1.90;;;4.60;99.90;;;;;;5045315;28;20193;-63
2022/01/17 13:11:24;;;;;;;7.63;1.53;;;4.60;99.90;;;;;;5062256;28;20207;-63
2022/01/17 13:13:52;;;;;;;5.10;1.70;;;4.60;99.90;;;;;;5053603;28;20178;-63
2022/01/17 13:16:22;;;;;;;4.43;2.03;;;4.70;99.90;;;;;;5057903;28;20568;-64
2022/01/17 13:18:49;;;;;;;4.73;1.80;;;4.70;99.90;;;;;;5057573;28;20190;-65
2022/01/17 13:21:15;;;;;;;6.07;1.60;;;4.90;99.90;;;;;;5054760;28;20234;-66